sensor_id;sensor_type;location;lat;lon;timestamp;pressure;altitude;pressure_sealevel;temperature;humidity
29383;BME280;16365;51.598;7.668;2022-08-03T00:00:19;100892.41;;;27.07;41.56
29383;BME280;16365;51.598;7.668;2022-08-03T00:02:46;100894.09;;;27.04;41.75
29383;BME280;16365;51.598;7.668;2022-08-03T00:05:12;100886.44;;;27.01;41.74
29383;BME280;16365;51.598;7.668;2022-08-03T00:07:39;100894.63;;;26.99;42.13
29383;BME280;16365;51.598;7.668;2022-08-03T00:10:06;100882.50;;;26.95;41.95
29383;BME280;16365;51.598;7.668;2022-08-03T00:12:33;100887.00;;;26.92;42.42
29383;BME280;16365;51.598;7.668;2022-08-03T00:15:01;100885.41;;;26.91;42.35
29383;BME280;16365;51.598;7.668;2022-08-03T00:17:30;100880.59;;;26.88;42.21
29383;BME280;16365;51.598;7.668;2022-08-03T00:20:17;100884.31;;;26.85;42.31
29383;BME280;16365;51.598;7.668;2022-08-03T00:22:44;100880.28;;;26.83;42.19
29383;BME280;16365;51.598;7.668;2022-08-03T00:25:10;100879.94;;;26.81;42.67
29383;BME280;16365;51.598;7.668;2022-08-03T00:27:37;100879.56;;;26.79;42.73
29383;BME280;16365;51.598;7.668;2022-08-03T00:30:04;100876.34;;;26.77;42.82
29383;BME280;16365;51.598;7.668;2022-08-03T00:32:31;100876.00;;;26.75;42.51
29383;BME280;16365;51.598;7.668;2022-08-03T00:34:58;100868.31;;;26.72;42.41
29383;BME280;16365;51.598;7.668;2022-08-03T00:37:25;100878.53;;;26.69;42.98
29383;BME280;16365;51.598;7.668;2022-08-03T00:40:09;100871.66;;;26.67;42.96
29383;BME280;16365;51.598;7.668;2022-08-03T00:42:53;100862.03;;;26.60;42.99
29383;BME280;16365;51.598;7.668;2022-08-03T00:45:25;100867.72;;;26.60;42.79
29383;BME280;16365;51.598;7.668;2022-08-03T00:47:52;100867.34;;;26.58;42.94
29383;BME280;16365;51.598;7.668;2022-08-03T00:50:21;100871.88;;;26.56;43.04
29383;BME280;16365;51.598;7.668;2022-08-03T00:52:49;100867.84;;;26.53;43.02
29383;BME280;16365;51.598;7.668;2022-08-03T00:55:16;100869.09;;;26.52;42.75
29383;BME280;16365;51.598;7.668;2022-08-03T00:57:44;100865.00;;;26.53;42.73
29383;BME280;16365;51.598;7.668;2022-08-03T01:00:13;100859.41;;;26.50;42.97
29383;BME280;16365;51.598;7.668;2022-08-03T01:02:40;100857.41;;;26.47;43.05
29383;BME280;16365;51.598;7.668;2022-08-03T01:05:08;100865.19;;;26.43;43.07
29383;BME280;16365;51.598;7.668;2022-08-03T01:13:00;100864.91;;;26.33;43.32
29383;BME280;16365;51.598;7.668;2022-08-03T01:15:50;100865.38;;;26.32;43.66
29383;BME280;16365;51.598;7.668;2022-08-03T01:21:26;100857.19;;;26.34;43.79
29383;BME280;16365;51.598;7.668;2022-08-03T01:29:40;100847.25;;;26.22;44.02
29383;BME280;16365;51.598;7.668;2022-08-03T01:32:18;100851.25;;;26.25;43.70
29383;BME280;16365;51.598;7.668;2022-08-03T01:35:12;100844.41;;;26.22;44.13
29383;BME280;16365;51.598;7.668;2022-08-03T01:37:52;100849.34;;;26.18;44.02
29383;BME280;16365;51.598;7.668;2022-08-03T01:40:24;100848.13;;;26.19;43.94
29383;BME280;16365;51.598;7.668;2022-08-03T01:42:54;100850.16;;;26.19;44.13
29383;BME280;16365;51.598;7.668;2022-08-03T01:45:23;100842.06;;;26.17;43.48
29383;BME280;16365;51.598;7.668;2022-08-03T01:47:50;100837.63;;;26.16;43.92
29383;BME280;16365;51.598;7.668;2022-08-03T01:50:23;100840.47;;;26.16;43.33
29383;BME280;16365;51.598;7.668;2022-08-03T01:52:51;100844.47;;;26.19;43.65
29383;BME280;16365;51.598;7.668;2022-08-03T01:55:20;100838.84;;;26.15;43.80
29383;BME280;16365;51.598;7.668;2022-08-03T01:57:49;100843.38;;;26.12;44.02
29383;BME280;16365;51.598;7.668;2022-08-03T02:00:33;100837.75;;;26.09;43.76
29383;BME280;16365;51.598;7.668;2022-08-03T02:03:01;100840.63;;;26.05;44.13
29383;BME280;16365;51.598;7.668;2022-08-03T02:05:30;100838.22;;;26.04;44.11
29383;BME280;16365;51.598;7.668;2022-08-03T02:07:58;100841.88;;;26.04;44.15
29383;BME280;16365;51.598;7.668;2022-08-03T02:10:26;100850.41;;;26.04;44.10
29383;BME280;16365;51.598;7.668;2022-08-03T02:13:03;100843.56;;;26.02;44.53
29383;BME280;16365;51.598;7.668;2022-08-03T02:15:31;100835.88;;;25.99;44.24
29383;BME280;16365;51.598;7.668;2022-08-03T02:18:00;100841.19;;;25.97;44.24
29383;BME280;16365;51.598;7.668;2022-08-03T02:20:28;100843.22;;;25.96;44.18
29383;BME280;16365;51.598;7.668;2022-08-03T02:22:58;100839.22;;;25.94;44.39
29383;BME280;16365;51.598;7.668;2022-08-03T02:25:25;100838.81;;;25.92;44.24
29383;BME280;16365;51.598;7.668;2022-08-03T02:27:55;100844.16;;;25.89;44.58
29383;BME280;16365;51.598;7.668;2022-08-03T02:30:28;100849.88;;;25.86;44.90
29383;BME280;16365;51.598;7.668;2022-08-03T02:32:56;100848.28;;;25.85;44.52
29383;BME280;16365;51.598;7.668;2022-08-03T02:35:26;100840.59;;;25.82;44.78
29383;BME280;16365;51.598;7.668;2022-08-03T02:37:58;100847.16;;;25.79;45.26
29383;BME280;16365;51.598;7.668;2022-08-03T02:40:28;100847.59;;;25.77;45.10
29383;BME280;16365;51.598;7.668;2022-08-03T02:42:58;100850.84;;;25.76;45.32
29383;BME280;16365;51.598;7.668;2022-08-03T02:45:26;100840.69;;;25.75;45.05
29383;BME280;16365;51.598;7.668;2022-08-03T02:47:57;100840.69;;;25.75;45.49
29383;BME280;16365;51.598;7.668;2022-08-03T02:50:27;100837.84;;;25.75;45.02
29383;BME280;16365;51.598;7.668;2022-08-03T02:52:56;100849.59;;;25.77;44.88
29383;BME280;16365;51.598;7.668;2022-08-03T02:55:25;100848.66;;;25.87;44.73
29383;BME280;16365;51.598;7.668;2022-08-03T02:57:54;100836.25;;;25.74;45.00
29383;BME280;16365;51.598;7.668;2022-08-03T03:00:21;100835.25;;;25.87;44.63
29383;BME280;16365;51.598;7.668;2022-08-03T03:02:58;100842.47;;;25.65;45.66
29383;BME280;16365;51.598;7.668;2022-08-03T03:05:26;100836.03;;;25.61;45.51
29383;BME280;16365;51.598;7.668;2022-08-03T03:08:16;100834.88;;;25.58;45.43
29383;BME280;16365;51.598;7.668;2022-08-03T03:10:51;100838.50;;;25.59;45.35
29383;BME280;16365;51.598;7.668;2022-08-03T03:13:21;100841.66;;;25.64;45.02
29383;BME280;16365;51.598;7.668;2022-08-03T03:15:48;100841.53;;;25.75;44.76
29383;BME280;16365;51.598;7.668;2022-08-03T03:18:16;100842.09;;;25.63;45.13
29383;BME280;16365;51.598;7.668;2022-08-03T03:20:48;100838.06;;;25.60;45.27
29383;BME280;16365;51.598;7.668;2022-08-03T03:23:16;100837.72;;;25.58;45.31
29383;BME280;16365;51.598;7.668;2022-08-03T03:25:43;100838.56;;;25.55;44.96
29383;BME280;16365;51.598;7.668;2022-08-03T03:28:10;100837.75;;;25.55;45.26
29383;BME280;16365;51.598;7.668;2022-08-03T03:30:37;100843.03;;;25.53;45.39
29383;BME280;16365;51.598;7.668;2022-08-03T03:33:04;100833.34;;;25.50;45.32
29383;BME280;16365;51.598;7.668;2022-08-03T03:35:31;100837.44;;;25.49;45.53
29383;BME280;16365;51.598;7.668;2022-08-03T03:38:05;100838.28;;;25.46;45.54
29383;BME280;16365;51.598;7.668;2022-08-03T03:40:34;100836.28;;;25.43;45.80
29383;BME280;16365;51.598;7.668;2022-08-03T03:43:01;100841.16;;;25.43;45.87
29383;BME280;16365;51.598;7.668;2022-08-03T03:45:29;100833.88;;;25.42;46.10
29383;BME280;16365;51.598;7.668;2022-08-03T03:47:58;100840.38;;;25.42;46.29
29383;BME280;16365;51.598;7.668;2022-08-03T03:50:26;100841.16;;;25.43;45.94
29383;BME280;16365;51.598;7.668;2022-08-03T03:52:53;100833.88;;;25.42;45.98
29383;BME280;16365;51.598;7.668;2022-08-03T03:55:20;100837.16;;;25.40;46.10
29383;BME280;16365;51.598;7.668;2022-08-03T03:57:46;100843.63;;;25.41;46.01
29383;BME280;16365;51.598;7.668;2022-08-03T04:00:14;100840.00;;;25.40;45.85
29383;BME280;16365;51.598;7.668;2022-08-03T04:02:41;100836.34;;;25.40;46.12
29383;BME280;16365;51.598;7.668;2022-08-03T04:05:08;100832.72;;;25.39;45.88
29383;BME280;16365;51.598;7.668;2022-08-03T04:07:57;100845.28;;;25.38;46.38
29383;BME280;16365;51.598;7.668;2022-08-03T04:10:47;100841.25;;;25.39;45.82
29383;BME280;16365;51.598;7.668;2022-08-03T04:13:33;100841.63;;;25.37;46.29
29383;BME280;16365;51.598;7.668;2022-08-03T04:16:00;100838.75;;;25.41;45.59
29383;BME280;16365;51.598;7.668;2022-08-03T04:18:30;100842.84;;;25.40;46.15
29383;BME280;16365;51.598;7.668;2022-08-03T04:21:00;100840.00;;;25.40;46.41
29383;BME280;16365;51.598;7.668;2022-08-03T04:23:32;100835.13;;;25.41;45.89
29383;BME280;16365;51.598;7.668;2022-08-03T04:26:01;100843.19;;;25.42;46.09
29383;BME280;16365;51.598;7.668;2022-08-03T04:28:30;100852.16;;;25.41;46.14
29383;BME280;16365;51.598;7.668;2022-08-03T04:30:59;100847.28;;;25.41;46.28
29383;BME280;16365;51.598;7.668;2022-08-03T04:33:28;100849.31;;;25.41;46.39
29383;BME280;16365;51.598;7.668;2022-08-03T04:35:59;100845.25;;;25.42;46.23
29383;BME280;16365;51.598;7.668;2022-08-03T04:38:31;100841.97;;;25.43;46.68
29383;BME280;16365;51.598;7.668;2022-08-03T04:41:00;100848.03;;;25.45;46.65
29383;BME280;16365;51.598;7.668;2022-08-03T04:43:27;100846.34;;;25.48;46.39
29383;BME280;16365;51.598;7.668;2022-08-03T04:45:55;100848.78;;;25.49;46.14
29383;BME280;16365;51.598;7.668;2022-08-03T04:48:22;100853.19;;;25.54;46.21
29383;BME280;16365;51.598;7.668;2022-08-03T04:50:49;100855.16;;;25.57;46.06
29383;BME280;16365;51.598;7.668;2022-08-03T04:53:16;100857.94;;;25.60;46.33
29383;BME280;16365;51.598;7.668;2022-08-03T04:55:44;100853.03;;;25.64;46.12
29383;BME280;16365;51.598;7.668;2022-08-03T04:58:11;100852.97;;;25.68;46.23
29383;BME280;16365;51.598;7.668;2022-08-03T05:00:37;100857.38;;;25.73;46.50
29383;BME280;16365;51.598;7.668;2022-08-03T05:03:04;100849.59;;;25.77;46.49
29383;BME280;16365;51.598;7.668;2022-08-03T05:05:53;100853.16;;;25.84;46.46
29383;BME280;16365;51.598;7.668;2022-08-03T05:08:36;100857.50;;;25.93;46.23
29383;BME280;16365;51.598;7.668;2022-08-03T05:11:13;100863.44;;;26.02;46.14
29383;BME280;16365;51.598;7.668;2022-08-03T05:13:40;100856.34;;;26.13;46.40
29383;BME280;16365;51.598;7.668;2022-08-03T05:16:07;100859.44;;;26.23;45.90
29383;BME280;16365;51.598;7.668;2022-08-03T05:18:33;100858.09;;;26.31;45.53
29383;BME280;16365;51.598;7.668;2022-08-03T05:21:01;100853.84;;;26.39;45.66
29383;BME280;16365;51.598;7.668;2022-08-03T05:23:27;100844.84;;;26.44;45.17
29383;BME280;16365;51.598;7.668;2022-08-03T05:25:54;100855.72;;;26.49;45.18
29383;BME280;16365;51.598;7.668;2022-08-03T05:28:21;100838.16;;;26.54;44.84
29383;BME280;16365;51.598;7.668;2022-08-03T05:30:47;100855.56;;;26.60;44.80
29383;BME280;16365;51.598;7.668;2022-08-03T05:33:14;100850.16;;;26.65;45.12
29383;BME280;16365;51.598;7.668;2022-08-03T05:35:41;100849.66;;;26.71;44.82
29383;BME280;16365;51.598;7.668;2022-08-03T05:38:27;100841.41;;;26.76;44.60
29383;BME280;16365;51.598;7.668;2022-08-03T05:41:01;100850.22;;;26.82;45.03
29383;BME280;16365;51.598;7.668;2022-08-03T05:43:48;100851.31;;;26.88;44.58
29383;BME280;16365;51.598;7.668;2022-08-03T05:46:15;100849.22;;;26.92;44.44
29383;BME280;16365;51.598;7.668;2022-08-03T05:48:42;100849.50;;;26.98;44.33
29383;BME280;16365;51.598;7.668;2022-08-03T05:51:09;100848.19;;;27.02;44.07
29383;BME280;16365;51.598;7.668;2022-08-03T05:53:38;100858.66;;;27.09;44.14
29383;BME280;16365;51.598;7.668;2022-08-03T05:56:04;100862.59;;;27.15;43.89
29383;BME280;16365;51.598;7.668;2022-08-03T05:58:42;100859.25;;;27.20;43.86
29383;BME280;16365;51.598;7.668;2022-08-03T06:01:08;100866.00;;;27.26;43.64
29383;BME280;16365;51.598;7.668;2022-08-03T06:03:35;100866.28;;;27.32;43.51
29383;BME280;16365;51.598;7.668;2022-08-03T06:06:01;100867.81;;;27.36;43.43
29383;BME280;16365;51.598;7.668;2022-08-03T06:08:28;100871.78;;;27.42;43.72
29383;BME280;16365;51.598;7.668;2022-08-03T06:10:55;100870.00;;;27.49;43.63
29383;BME280;16365;51.598;7.668;2022-08-03T06:13:21;100866.56;;;27.57;43.36
29383;BME280;16365;51.598;7.668;2022-08-03T06:15:48;100865.59;;;27.64;43.37
29383;BME280;16365;51.598;7.668;2022-08-03T06:18:14;100863.41;;;27.72;43.19
29383;BME280;16365;51.598;7.668;2022-08-03T06:20:41;100861.97;;;27.80;43.15
29383;BME280;16365;51.598;7.668;2022-08-03T06:23:07;100859.44;;;27.85;42.78
29383;BME280;16365;51.598;7.668;2022-08-03T06:25:43;100866.91;;;27.96;42.78
29383;BME280;16365;51.598;7.668;2022-08-03T06:28:09;100861.03;;;28.03;43.08
29383;BME280;16365;51.598;7.668;2022-08-03T06:30:57;100857.09;;;28.13;42.50
29383;BME280;16365;51.598;7.668;2022-08-03T06:33:24;100864.25;;;28.21;42.04
29383;BME280;16365;51.598;7.668;2022-08-03T06:36:11;100863.63;;;28.30;42.05
29383;BME280;16365;51.598;7.668;2022-08-03T06:38:38;100864.25;;;28.37;41.96
29383;BME280;16365;51.598;7.668;2022-08-03T06:41:04;100857.56;;;28.44;42.02
29383;BME280;16365;51.598;7.668;2022-08-03T06:43:31;100864.66;;;28.52;42.00
29383;BME280;16365;51.598;7.668;2022-08-03T06:46:01;100860.84;;;28.59;41.72
29383;BME280;16365;51.598;7.668;2022-08-03T06:48:28;100861.88;;;28.65;41.74
29383;BME280;16365;51.598;7.668;2022-08-03T06:50:55;100866.59;;;28.72;41.72
29383;BME280;16365;51.598;7.668;2022-08-03T06:53:21;100875.75;;;28.79;41.62
29383;BME280;16365;51.598;7.668;2022-08-03T06:55:48;100866.19;;;28.86;41.68
29383;BME280;16365;51.598;7.668;2022-08-03T06:58:20;100873.31;;;28.94;41.60
29383;BME280;16365;51.598;7.668;2022-08-03T07:00:46;100869.03;;;29.02;41.42
29383;BME280;16365;51.598;7.668;2022-08-03T07:03:13;100868.00;;;29.09;41.29
29383;BME280;16365;51.598;7.668;2022-08-03T07:05:41;100871.47;;;29.16;41.26
29383;BME280;16365;51.598;7.668;2022-08-03T07:08:08;100872.41;;;29.26;41.35
29383;BME280;16365;51.598;7.668;2022-08-03T07:10:35;100873.78;;;29.34;40.98
29383;BME280;16365;51.598;7.668;2022-08-03T07:13:02;100873.91;;;29.43;40.57
29383;BME280;16365;51.598;7.668;2022-08-03T07:15:29;100873.59;;;29.54;40.67
29383;BME280;16365;51.598;7.668;2022-08-03T07:18:16;100878.53;;;29.66;40.80
29383;BME280;16365;51.598;7.668;2022-08-03T07:20:52;100887.13;;;29.79;40.33
29383;BME280;16365;51.598;7.668;2022-08-03T07:23:19;100883.13;;;29.89;40.21
29383;BME280;16365;51.598;7.668;2022-08-03T07:25:46;100886.09;;;29.99;40.25
29383;BME280;16365;51.598;7.668;2022-08-03T07:28:16;100879.22;;;30.09;39.96
29383;BME280;16365;51.598;7.668;2022-08-03T07:30:43;100891.81;;;30.24;40.29
29383;BME280;16365;51.598;7.668;2022-08-03T07:33:09;100891.66;;;30.40;40.34
29383;BME280;16365;51.598;7.668;2022-08-03T07:35:36;100887.47;;;30.67;40.47
29383;BME280;16365;51.598;7.668;2022-08-03T07:38:08;100883.00;;;31.01;39.79
29383;BME280;16365;51.598;7.668;2022-08-03T07:40:34;100882.53;;;31.46;40.67
29383;BME280;16365;51.598;7.668;2022-08-03T07:43:01;100880.09;;;31.97;40.20
29383;BME280;16365;51.598;7.668;2022-08-03T07:45:30;100884.56;;;32.57;39.47
29383;BME280;16365;51.598;7.668;2022-08-03T07:47:57;100881.88;;;33.18;39.39
29383;BME280;16365;51.598;7.668;2022-08-03T07:50:23;100884.44;;;33.76;37.58
29383;BME280;16365;51.598;7.668;2022-08-03T07:52:51;100882.28;;;34.29;36.42
29383;BME280;16365;51.598;7.668;2022-08-03T07:55:20;100883.78;;;34.72;35.23
29383;BME280;16365;51.598;7.668;2022-08-03T07:58:08;100883.16;;;35.07;33.77
29383;BME280;16365;51.598;7.668;2022-08-03T08:00:35;100881.69;;;35.41;33.95
29383;BME280;16365;51.598;7.668;2022-08-03T08:03:03;100882.69;;;35.67;33.13
29383;BME280;16365;51.598;7.668;2022-08-03T08:05:30;100874.19;;;35.93;33.27
29383;BME280;16365;51.598;7.668;2022-08-03T08:07:56;100869.13;;;36.23;32.49
29383;BME280;16365;51.598;7.668;2022-08-03T08:10:23;100868.50;;;36.54;32.32
29383;BME280;16365;51.598;7.668;2022-08-03T08:12:50;100862.81;;;36.80;31.59
29383;BME280;16365;51.598;7.668;2022-08-03T08:15:16;100865.16;;;37.02;31.36
29383;BME280;16365;51.598;7.668;2022-08-03T08:17:48;100867.94;;;37.17;30.23
29383;BME280;16365;51.598;7.668;2022-08-03T08:20:30;100877.06;;;37.36;30.33
29383;BME280;16365;51.598;7.668;2022-08-03T08:23:02;100861.50;;;37.60;30.26
29383;BME280;16365;51.598;7.668;2022-08-03T08:25:49;100856.75;;;37.88;30.30
29383;BME280;16365;51.598;7.668;2022-08-03T08:28:17;100855.84;;;38.14;30.44
29383;BME280;16365;51.598;7.668;2022-08-03T08:30:58;100862.38;;;38.46;29.61
29383;BME280;16365;51.598;7.668;2022-08-03T08:33:24;100860.66;;;38.76;29.14
29383;BME280;16365;51.598;7.668;2022-08-03T08:36:07;100866.00;;;39.12;28.70
29383;BME280;16365;51.598;7.668;2022-08-03T08:38:40;100858.69;;;39.44;28.46
29383;BME280;16365;51.598;7.668;2022-08-03T08:41:12;100863.19;;;39.73;27.31
29383;BME280;16365;51.598;7.668;2022-08-03T08:43:40;100869.22;;;39.92;26.46
29383;BME280;16365;51.598;7.668;2022-08-03T08:46:10;100862.38;;;39.95;25.99
29383;BME280;16365;51.598;7.668;2022-08-03T08:48:43;100865.78;;;39.94;25.62
29383;BME280;16365;51.598;7.668;2022-08-03T08:51:11;100859.72;;;39.97;25.82
29383;BME280;16365;51.598;7.668;2022-08-03T08:53:40;100862.06;;;39.99;25.57
29383;BME280;16365;51.598;7.668;2022-08-03T08:56:12;100858.13;;;40.02;25.37
29383;BME280;16365;51.598;7.668;2022-08-03T08:58:50;100855.22;;;40.02;25.52
29383;BME280;16365;51.598;7.668;2022-08-03T09:01:20;100856.53;;;40.01;24.80
29383;BME280;16365;51.598;7.668;2022-08-03T09:03:47;100862.59;;;39.97;24.83
29383;BME280;16365;51.598;7.668;2022-08-03T09:06:14;100854.97;;;39.89;24.47
29383;BME280;16365;51.598;7.668;2022-08-03T09:08:41;100853.13;;;39.74;24.74
29383;BME280;16365;51.598;7.668;2022-08-03T09:11:08;100853.13;;;39.57;24.58
29383;BME280;16365;51.598;7.668;2022-08-03T09:13:37;100848.66;;;39.40;24.82
29383;BME280;16365;51.598;7.668;2022-08-03T09:16:12;100849.69;;;39.20;24.60
29383;BME280;16365;51.598;7.668;2022-08-03T09:18:40;100856.75;;;39.02;24.50
29383;BME280;16365;51.598;7.668;2022-08-03T09:24:01;100850.81;;;38.63;24.51
29383;BME280;16365;51.598;7.668;2022-08-03T09:26:33;100852.09;;;38.45;24.51
29383;BME280;16365;51.598;7.668;2022-08-03T09:29:07;100836.16;;;38.29;24.62
29383;BME280;16365;51.598;7.668;2022-08-03T09:31:44;100845.06;;;38.14;24.68
29383;BME280;16365;51.598;7.668;2022-08-03T09:34:14;100851.81;;;38.00;25.13
29383;BME280;16365;51.598;7.668;2022-08-03T09:36:49;100850.97;;;37.88;25.55
29383;BME280;16365;51.598;7.668;2022-08-03T09:39:18;100841.19;;;37.86;25.13
29383;BME280;16365;51.598;7.668;2022-08-03T09:42:07;100859.09;;;37.84;25.52
29383;BME280;16365;51.598;7.668;2022-08-03T09:44:39;100841.44;;;37.82;25.73
29383;BME280;16365;51.598;7.668;2022-08-03T09:47:09;100842.72;;;37.81;25.92
29383;BME280;16365;51.598;7.668;2022-08-03T09:49:37;100844.81;;;37.80;25.59
29383;BME280;16365;51.598;7.668;2022-08-03T09:52:11;100848.00;;;37.83;26.65
29383;BME280;16365;51.598;7.668;2022-08-03T09:55:00;100846.66;;;37.78;24.66
29383;BME280;16365;51.598;7.668;2022-08-03T09:57:28;100842.59;;;37.64;24.81
29383;BME280;16365;51.598;7.668;2022-08-03T10:00:08;100846.66;;;37.46;25.17
29383;BME280;16365;51.598;7.668;2022-08-03T10:02:36;100842.66;;;37.38;25.37
29383;BME280;16365;51.598;7.668;2022-08-03T10:05:04;100848.59;;;37.29;25.34
29383;BME280;16365;51.598;7.668;2022-08-03T10:07:44;100852.47;;;37.20;25.96
29383;BME280;16365;51.598;7.668;2022-08-03T10:10:12;100846.69;;;37.20;25.26
29383;BME280;16365;51.598;7.668;2022-08-03T10:12:58;100851.38;;;37.18;25.42
29383;BME280;16365;51.598;7.668;2022-08-03T10:15:25;100845.06;;;37.14;25.69
29383;BME280;16365;51.598;7.668;2022-08-03T10:18:12;100839.50;;;37.10;25.54
29383;BME280;16365;51.598;7.668;2022-08-03T10:20:45;100835.19;;;37.00;25.83
29383;BME280;16365;51.598;7.668;2022-08-03T10:23:16;100828.84;;;36.96;25.07
29383;BME280;16365;51.598;7.668;2022-08-03T10:25:45;100840.63;;;36.92;25.40
29383;BME280;16365;51.598;7.668;2022-08-03T10:28:15;100833.75;;;36.90;25.21
29383;BME280;16365;51.598;7.668;2022-08-03T10:30:47;100824.78;;;36.88;25.52
29383;BME280;16365;51.598;7.668;2022-08-03T10:33:27;100822.91;;;36.85;26.22
29383;BME280;16365;51.598;7.668;2022-08-03T10:36:15;100829.56;;;36.91;25.42
29383;BME280;16365;51.598;7.668;2022-08-03T10:38:44;100828.53;;;36.94;25.04
29383;BME280;16365;51.598;7.668;2022-08-03T10:41:12;100831.72;;;36.96;25.29
29383;BME280;16365;51.598;7.668;2022-08-03T10:43:46;100818.59;;;36.95;25.14
29383;BME280;16365;51.598;7.668;2022-08-03T10:46:18;100824.13;;;36.98;25.13
29383;BME280;16365;51.598;7.668;2022-08-03T10:48:45;100807.34;;;37.02;25.44
29383;BME280;16365;51.598;7.668;2022-08-03T10:51:14;100815.78;;;37.06;25.44
29383;BME280;16365;51.598;7.668;2022-08-03T10:53:42;100821.84;;;37.08;25.10
29383;BME280;16365;51.598;7.668;2022-08-03T11:02:05;100797.75;;;37.17;25.11
29383;BME280;16365;51.598;7.668;2022-08-03T11:04:35;100801.16;;;37.15;24.92
29383;BME280;16365;51.598;7.668;2022-08-03T11:07:22;100809.53;;;37.13;25.37
29383;BME280;16365;51.598;7.668;2022-08-03T11:09:54;100805.38;;;37.14;24.61
29383;BME280;16365;51.598;7.668;2022-08-03T11:15:04;100805.06;;;37.12;24.68
29383;BME280;16365;51.598;7.668;2022-08-03T11:17:32;100802.75;;;37.16;24.68
29383;BME280;16365;51.598;7.668;2022-08-03T11:20:12;100796.44;;;37.18;24.90
29383;BME280;16365;51.598;7.668;2022-08-03T11:22:48;100797.47;;;37.15;25.25
29383;BME280;16365;51.598;7.668;2022-08-03T11:25:16;100796.72;;;37.20;24.86
29383;BME280;16365;51.598;7.668;2022-08-03T11:28:27;100795.66;;;37.17;24.67
29383;BME280;16365;51.598;7.668;2022-08-03T11:30:53;100795.94;;;37.19;24.23
29383;BME280;16365;51.598;7.668;2022-08-03T11:33:30;100795.06;;;37.13;24.15
29383;BME280;16365;51.598;7.668;2022-08-03T11:35:58;100797.47;;;37.15;24.72
29383;BME280;16365;51.598;7.668;2022-08-03T11:38:25;100790.38;;;37.16;24.76
29383;BME280;16365;51.598;7.668;2022-08-03T11:40:53;100791.41;;;37.13;24.39
29383;BME280;16365;51.598;7.668;2022-08-03T11:46:05;100796.38;;;37.12;24.48
29383;BME280;16365;51.598;7.668;2022-08-03T11:48:40;100805.28;;;37.09;24.41
29383;BME280;16365;51.598;7.668;2022-08-03T11:51:28;100793.44;;;37.07;24.86
29383;BME280;16365;51.598;7.668;2022-08-03T11:54:04;100795.03;;;37.08;24.26
29383;BME280;16365;51.598;7.668;2022-08-03T11:56:45;100798.72;;;37.08;24.65
29383;BME280;16365;51.598;7.668;2022-08-03T11:59:12;100789.81;;;37.12;24.18
29383;BME280;16365;51.598;7.668;2022-08-03T12:01:47;100793.50;;;37.12;24.53
29383;BME280;16365;51.598;7.668;2022-08-03T12:04:13;100805.06;;;37.12;24.32
29383;BME280;16365;51.598;7.668;2022-08-03T12:06:57;100807.38;;;37.08;24.13
29383;BME280;16365;51.598;7.668;2022-08-03T12:09:23;100797.69;;;37.11;23.79
29383;BME280;16365;51.598;7.668;2022-08-03T12:11:50;100792.44;;;37.10;23.94
29383;BME280;16365;51.598;7.668;2022-08-03T12:14:27;100797.69;;;37.11;23.88
29383;BME280;16365;51.598;7.668;2022-08-03T12:17:15;100800.59;;;37.11;24.56
29383;BME280;16365;51.598;7.668;2022-08-03T12:19:42;100802.75;;;37.16;24.14
29383;BME280;16365;51.598;7.668;2022-08-03T12:22:09;100783.06;;;37.20;23.92
29383;BME280;16365;51.598;7.668;2022-08-03T12:24:42;100792.78;;;37.23;23.73
29383;BME280;16365;51.598;7.668;2022-08-03T12:27:21;100793.88;;;37.25;23.87
29383;BME280;16365;51.598;7.668;2022-08-03T12:29:50;100787.88;;;37.29;23.92
29383;BME280;16365;51.598;7.668;2022-08-03T12:32:25;100788.66;;;37.29;23.82
29383;BME280;16365;51.598;7.668;2022-08-03T12:34:52;100778.16;;;37.32;24.80
29383;BME280;16365;51.598;7.668;2022-08-03T12:37:20;100785.28;;;37.37;23.95
29383;BME280;16365;51.598;7.668;2022-08-03T12:39:50;100776.59;;;37.37;23.55
29383;BME280;16365;51.598;7.668;2022-08-03T12:42:31;100780.63;;;37.39;23.45
29383;BME280;16365;51.598;7.668;2022-08-03T12:44:58;100780.09;;;37.41;23.54
29383;BME280;16365;51.598;7.668;2022-08-03T12:47:24;100769.59;;;37.43;23.31
29383;BME280;16365;51.598;7.668;2022-08-03T12:49:52;100775.66;;;37.45;23.41
29383;BME280;16365;51.598;7.668;2022-08-03T12:52:20;100769.13;;;37.50;24.53
29383;BME280;16365;51.598;7.668;2022-08-03T12:54:59;100784.13;;;37.54;24.16
29383;BME280;16365;51.598;7.668;2022-08-03T12:57:39;100776.25;;;37.55;23.37
29383;BME280;16365;51.598;7.668;2022-08-03T13:00:10;100783.63;;;37.56;23.00
29383;BME280;16365;51.598;7.668;2022-08-03T13:03:12;100781.78;;;37.53;23.63
29383;BME280;16365;51.598;7.668;2022-08-03T13:05:59;100771.00;;;37.53;23.56
29383;BME280;16365;51.598;7.668;2022-08-03T13:08:25;100768.34;;;37.50;23.34
29383;BME280;16365;51.598;7.668;2022-08-03T13:10:52;100771.44;;;37.46;23.82
29383;BME280;16365;51.598;7.668;2022-08-03T13:13:37;100766.94;;;37.40;23.88
29383;BME280;16365;51.598;7.668;2022-08-03T13:16:04;100767.22;;;37.42;23.64
29383;BME280;16365;51.598;7.668;2022-08-03T13:18:31;100760.63;;;37.41;23.79
29383;BME280;16365;51.598;7.668;2022-08-03T13:20:59;100765.94;;;37.43;23.86
29383;BME280;16365;51.598;7.668;2022-08-03T13:23:25;100760.41;;;37.45;23.88
29383;BME280;16365;51.598;7.668;2022-08-03T13:25:52;100763.31;;;37.45;23.91
29383;BME280;16365;51.598;7.668;2022-08-03T13:28:21;100764.66;;;37.49;23.73
29383;BME280;16365;51.598;7.668;2022-08-03T13:30:48;100762.00;;;37.51;24.26
29383;BME280;16365;51.598;7.668;2022-08-03T13:33:15;100757.31;;;37.54;23.98
29383;BME280;16365;51.598;7.668;2022-08-03T13:35:41;100762.06;;;37.57;23.81
29383;BME280;16365;51.598;7.668;2022-08-03T13:38:08;100761.25;;;37.56;23.90